createdAt,value
2023-03-11T00:00:34.203Z,100993.41
2023-03-11T00:03:03.285Z,100976.03
2023-03-11T00:05:33.017Z,101006.09
2023-03-11T00:08:00.865Z,101003.56
2023-03-11T00:10:39.837Z,101009.56
2023-03-11T00:13:08.612Z,100989.56
2023-03-11T00:15:36.423Z,101012.03
2023-03-11T00:18:03.043Z,100987.63
2023-03-11T00:20:32.444Z,101015.38
2023-03-11T00:22:59.873Z,100985.97
2023-03-11T00:25:29.857Z,100997.34
2023-03-11T00:27:57.255Z,100961.19
2023-03-11T00:30:24.824Z,100955.13
2023-03-11T00:32:53.907Z,100967.34
2023-03-11T00:35:27.305Z,100966.44
2023-03-11T00:37:59.565Z,100951.63
2023-03-11T00:40:28.676Z,100960.41
2023-03-11T00:42:55.772Z,100938.03
2023-03-11T00:45:22.630Z,100920.91
2023-03-11T00:47:49.973Z,100898.41
2023-03-11T00:50:45.955Z,100953.66
2023-03-11T00:53:12.589Z,100952.56
2023-03-11T00:55:39.233Z,100953.34
2023-03-11T00:58:06.961Z,100955.19
2023-03-11T01:00:34.057Z,100921.22
2023-03-11T01:03:01.122Z,100972.94
2023-03-11T01:05:30.837Z,100949.50
2023-03-11T01:07:57.954Z,100969.38
2023-03-11T01:10:25.376Z,100935.59
2023-03-11T01:12:52.223Z,100944.25
2023-03-11T01:15:31.390Z,100956.28
2023-03-11T01:17:58.041Z,100950.09
2023-03-11T01:20:24.770Z,100955.97
2023-03-11T01:22:51.883Z,100955.97
2023-03-11T01:25:21.209Z,100969.97
2023-03-11T01:27:47.967Z,100961.34
2023-03-11T01:30:18.701Z,100951.09
2023-03-11T01:32:45.552Z,100960.41
2023-03-11T01:35:14.131Z,100949.22
2023-03-11T01:37:40.967Z,100947.31
2023-03-11T01:40:11.510Z,100946.41
2023-03-11T01:42:38.108Z,100966.97
2023-03-11T01:45:29.021Z,100944.56
2023-03-11T01:47:55.777Z,100954.88
2023-03-11T01:50:22.654Z,100934.94
2023-03-11T01:52:49.437Z,100940.16
2023-03-11T01:55:19.059Z,100940.00
2023-03-11T01:57:47.646Z,100936.38
2023-03-11T02:00:17.838Z,100964.94
2023-03-11T02:02:53.782Z,100960.50
2023-03-11T02:05:22.771Z,100943.22
2023-03-11T02:07:50.740Z,100948.38
2023-03-11T02:10:18.014Z,100940.66
2023-03-11T02:12:45.921Z,100957.06
2023-03-11T02:15:13.315Z,100923.41
2023-03-11T02:17:42.161Z,100933.69
2023-03-11T02:20:20.355Z,100947.53
2023-03-11T02:22:48.194Z,100913.75
2023-03-11T02:25:31.134Z,100934.53
2023-03-11T02:27:59.700Z,100905.88
2023-03-11T02:30:28.084Z,100916.19
2023-03-11T02:32:56.055Z,100932.56
2023-03-11T02:35:22.926Z,100936.03
2023-03-11T02:37:52.363Z,100932.72
2023-03-11T02:40:21.936Z,100932.22
2023-03-11T02:43:00.447Z,100898.91
2023-03-11T02:45:27.547Z,100895.69
2023-03-11T02:47:56.551Z,100914.72
2023-03-11T02:50:25.569Z,100911.31
2023-03-11T02:52:52.617Z,100915.59
2023-03-11T02:55:20.577Z,100907.81
2023-03-11T02:57:48.054Z,100895.63
2023-03-11T03:00:16.767Z,100925.72
2023-03-11T03:02:45.144Z,100911.84
2023-03-11T03:05:12.693Z,100916.13
2023-03-11T03:07:39.462Z,100909.19
2023-03-11T03:10:06.863Z,100901.44
2023-03-11T03:12:33.493Z,100848.53
2023-03-11T03:15:00.134Z,100899.41
2023-03-11T03:17:26.843Z,100910.47
2023-03-11T03:19:53.435Z,100905.22
2023-03-11T03:22:19.984Z,100874.06
2023-03-11T03:24:46.626Z,100888.75
2023-03-11T03:27:13.145Z,100877.50
2023-03-11T03:29:39.762Z,100907.59
2023-03-11T03:32:06.874Z,100867.78
2023-03-11T03:34:33.593Z,100893.00
2023-03-11T03:37:00.108Z,100876.38
2023-03-11T03:39:28.728Z,100872.03
2023-03-11T03:41:56.624Z,100868.56
2023-03-11T03:44:23.207Z,100880.69
2023-03-11T03:46:49.717Z,100862.50
2023-03-11T03:49:16.310Z,100890.28
2023-03-11T03:51:42.820Z,100854.88
2023-03-11T03:54:09.461Z,100879.91
2023-03-11T03:56:36.130Z,100882.50
2023-03-11T03:59:02.714Z,100881.38
2023-03-11T04:01:29.473Z,100882.91
2023-03-11T04:03:55.967Z,100873.34
2023-03-11T04:06:25.638Z,100896.75
2023-03-11T04:08:53.008Z,100867.88
2023-03-11T04:11:20.147Z,100907.81
2023-03-11T04:13:47.002Z,100859.38
2023-03-11T04:16:18.459Z,100903.69
2023-03-11T04:18:45.125Z,100880.34
2023-03-11T04:21:11.848Z,100889.16
2023-03-11T04:23:38.586Z,100872.75
2023-03-11T04:26:05.143Z,100890.81
2023-03-11T04:28:31.878Z,100875.34
2023-03-11T04:30:58.794Z,100891.59
2023-03-11T04:33:25.460Z,100920.19
2023-03-11T04:35:52.102Z,100897.94
2023-03-11T04:38:18.787Z,100918.09
2023-03-11T04:40:45.641Z,100907.56
2023-03-11T04:43:12.299Z,100914.69
2023-03-11T04:45:39.539Z,100886.97
2023-03-11T04:48:06.518Z,100937.22
2023-03-11T04:50:33.257Z,100933.84
2023-03-11T04:52:59.843Z,100923.47
2023-03-11T04:55:26.480Z,100915.84
2023-03-11T04:57:53.107Z,100940.97
2023-03-11T05:00:25.055Z,100891.72
2023-03-11T05:02:51.999Z,100919.44
2023-03-11T05:05:19.954Z,100950.75
2023-03-11T05:07:47.013Z,100945.66
2023-03-11T05:10:13.812Z,100935.09
2023-03-11T05:12:41.070Z,100954.22
2023-03-11T05:15:08.225Z,100964.38
2023-03-11T05:17:34.720Z,100947.06
2023-03-11T05:20:01.283Z,100956.63
2023-03-11T05:22:27.925Z,100962.69
2023-03-11T05:24:54.393Z,100957.28
2023-03-11T05:27:21.377Z,100961.69
2023-03-11T05:29:48.102Z,100936.84
2023-03-11T05:32:14.961Z,100944.75
2023-03-11T05:34:41.593Z,100964.78
2023-03-11T05:37:09.110Z,100938.88
2023-03-11T05:39:37.765Z,100930.38
2023-03-11T05:42:08.156Z,100949.38
2023-03-11T05:44:34.986Z,100965.78
2023-03-11T05:47:01.619Z,100946.66
2023-03-11T05:49:28.342Z,100920.94
2023-03-11T05:51:57.399Z,100950.31
2023-03-11T05:54:25.137Z,100958.09
2023-03-11T05:56:51.671Z,100960.75
2023-03-11T05:59:18.264Z,100961.66
2023-03-11T06:01:45.373Z,100932.34
2023-03-11T06:04:12.373Z,100890.03
2023-03-11T06:06:41.570Z,100934.28
2023-03-11T06:09:12.665Z,100927.06
2023-03-11T06:11:39.238Z,100963.44
2023-03-11T06:14:05.969Z,100930.47
2023-03-11T06:16:32.607Z,100968.53
2023-03-11T06:19:00.861Z,100958.97
2023-03-11T06:21:27.610Z,100953.84
2023-03-11T06:23:56.357Z,100956.59
2023-03-11T06:26:23.661Z,100988.56
2023-03-11T06:28:52.191Z,100995.47
2023-03-11T06:31:26.079Z,100992.13
2023-03-11T06:33:57.117Z,100981.00
2023-03-11T06:36:26.507Z,100946.41
2023-03-11T06:38:54.593Z,100988.00
2023-03-11T06:41:21.643Z,100974.00
2023-03-11T06:43:50.843Z,100998.19
2023-03-11T06:46:21.249Z,100944.78
2023-03-11T06:48:52.278Z,100986.47
2023-03-11T06:51:20.562Z,100962.25
2023-03-11T06:53:52.636Z,100970.91
2023-03-11T06:56:20.659Z,101014.00
2023-03-11T06:58:54.931Z,100996.56
2023-03-11T07:01:31.570Z,100994.94
2023-03-11T07:03:58.521Z,101009.69
2023-03-11T07:06:26.799Z,101014.84
2023-03-11T07:08:54.048Z,101001.69
2023-03-11T07:11:25.862Z,101025.94
2023-03-11T07:13:55.095Z,101029.44
2023-03-11T07:16:31.254Z,101015.69
2023-03-11T07:19:01.027Z,101065.97
2023-03-11T07:21:35.728Z,101003.03
2023-03-11T07:24:07.569Z,101022.31
2023-03-11T07:26:37.956Z,101028.47
2023-03-11T07:29:04.527Z,100994.81
2023-03-11T07:31:35.212Z,101045.16
2023-03-11T07:34:04.743Z,101034.16
2023-03-11T07:36:33.994Z,101015.25
2023-03-11T07:39:04.438Z,101042.97
2023-03-11T07:41:33.832Z,101056.81
2023-03-11T07:44:04.726Z,101041.34
2023-03-11T07:46:36.990Z,100982.84
2023-03-11T07:49:04.435Z,101007.16
2023-03-11T07:51:33.622Z,101054.75
2023-03-11T07:54:05.160Z,101012.59
2023-03-11T07:56:39.373Z,100978.09
2023-03-11T07:59:08.724Z,101004.06
2023-03-11T08:01:41.268Z,101042.25
2023-03-11T08:04:16.875Z,101045.75
2023-03-11T08:06:48.969Z,101024.34
2023-03-11T08:09:15.835Z,100978.56
2023-03-11T08:11:42.845Z,101015.16
2023-03-11T08:14:09.750Z,101042.88
2023-03-11T08:16:36.346Z,100987.69
2023-03-11T08:19:08.723Z,101040.53
2023-03-11T08:21:39.862Z,101031.22
2023-03-11T08:24:07.098Z,101016.50
2023-03-11T08:26:42.015Z,101003.72
2023-03-11T08:29:08.660Z,101039.25
2023-03-11T08:31:41.233Z,101020.13
2023-03-11T08:34:18.655Z,101047.06
2023-03-11T08:36:48.557Z,100986.66
2023-03-11T08:39:17.808Z,100999.75
2023-03-11T08:41:44.565Z,100979.19
2023-03-11T08:44:26.462Z,101017.31
2023-03-11T08:46:56.454Z,100989.81
2023-03-11T08:49:29.664Z,101000.31
2023-03-11T08:56:28.212Z,101001.50
2023-03-11T08:58:57.190Z,100981.94
2023-03-11T09:01:26.890Z,100986.50
2023-03-11T09:03:53.907Z,100954.59
2023-03-11T09:06:21.045Z,101028.13
2023-03-11T09:11:54.159Z,101005.97
2023-03-11T09:14:23.390Z,100991.50
2023-03-11T09:16:49.987Z,101014.09
2023-03-11T09:19:16.738Z,101025.47
2023-03-11T09:21:43.434Z,101029.03
2023-03-11T09:24:10.088Z,101022.25
2023-03-11T09:26:42.485Z,101046.50
2023-03-11T09:29:09.289Z,101012.06
2023-03-11T09:31:36.022Z,101027.66
2023-03-11T09:34:05.990Z,101042.41
2023-03-11T09:36:32.491Z,101059.75
2023-03-11T09:38:59.185Z,101042.56
2023-03-11T09:41:51.510Z,101066.78
2023-03-11T09:44:29.125Z,101067.72
2023-03-11T09:47:17.408Z,101057.41
2023-03-11T09:50:00.209Z,101047.13
2023-03-11T09:52:45.217Z,101049.78
2023-03-11T09:55:24.492Z,101017.88
2023-03-11T09:57:54.147Z,101004.09
2023-03-11T10:00:26.785Z,101031.69
2023-03-11T10:06:32.901Z,101003.22
2023-03-11T10:09:32.586Z,101041.13
2023-03-11T10:12:18.033Z,101037.69
2023-03-11T10:15:14.717Z,101032.50
2023-03-11T10:18:25.893Z,101035.06
2023-03-11T10:20:59.782Z,101032.44
2023-03-11T10:24:01.045Z,101000.50
2023-03-11T10:30:39.797Z,100959.06
2023-03-11T10:33:31.384Z,100940.88
2023-03-11T10:42:21.979Z,100986.38
2023-03-11T10:44:20.218Z,100942.31
2023-03-11T10:46:49.658Z,100967.06
2023-03-11T10:55:13.481Z,100958.66
2023-03-11T10:57:48.890Z,100966.84
2023-03-11T11:05:14.789Z,100931.53
2023-03-11T11:07:52.293Z,100969.22
2023-03-11T11:10:25.545Z,100998.19
2023-03-11T11:13:28.837Z,100960.16
2023-03-11T11:16:07.841Z,100988.53
2023-03-11T11:18:49.463Z,100889.19
2023-03-11T11:22:18.581Z,100954.94
2023-03-11T11:24:53.567Z,100885.91
2023-03-11T11:27:57.526Z,100903.97
2023-03-11T11:34:01.343Z,100913.44
2023-03-11T11:36:45.883Z,100933.34
2023-03-11T11:39:34.887Z,100931.22
2023-03-11T11:42:40.391Z,100923.56
2023-03-11T11:45:16.138Z,100912.38
2023-03-11T11:47:51.251Z,100933.63
2023-03-11T11:50:40.116Z,100880.06
2023-03-11T11:53:33.706Z,100895.22
2023-03-11T11:56:10.780Z,100931.19
2023-03-11T11:58:39.412Z,100938.81
2023-03-11T12:02:25.070Z,100938.94
2023-03-11T12:05:10.676Z,100887.53
2023-03-11T12:07:56.169Z,100967.34
2023-03-11T12:10:53.298Z,100906.25
2023-03-11T12:14:00.690Z,100971.63
2023-03-11T12:16:59.060Z,100972.47
2023-03-11T12:20:21.205Z,100977.69
2023-03-11T12:23:00.286Z,100963.97
2023-03-11T12:26:11.685Z,100905.81
2023-03-11T12:28:52.190Z,100902.63
2023-03-11T12:32:03.488Z,100933.44
2023-03-11T12:34:44.597Z,100913.41
2023-03-11T12:37:17.048Z,100915.63
2023-03-11T12:39:55.944Z,100939.69
2023-03-11T12:42:38.663Z,100964.75
2023-03-11T12:45:59.919Z,100955.56
2023-03-11T12:48:33.263Z,100959.97
2023-03-11T12:51:27.545Z,100955.31
2023-03-11T12:58:02.233Z,100904.41
2023-03-11T13:01:07.204Z,100908.13
2023-03-11T13:07:45.316Z,100939.34
2023-03-11T13:10:59.767Z,100902.47
2023-03-11T13:13:49.344Z,100922.00
2023-03-11T13:16:18.355Z,100895.59
2023-03-11T13:18:48.238Z,100928.03
2023-03-11T13:21:32.302Z,100897.00
2023-03-11T13:31:00.776Z,100864.84
2023-03-11T13:37:55.441Z,100899.03
2023-03-11T13:40:45.086Z,100856.78
2023-03-11T13:46:38.575Z,100858.41
2023-03-11T13:49:27.751Z,100863.41
2023-03-11T13:52:08.501Z,100810.06
2023-03-11T13:58:16.695Z,100833.53
2023-03-11T14:00:56.919Z,100771.13
2023-03-11T14:07:18.969Z,100796.38
2023-03-11T14:09:49.390Z,100807.50
2023-03-11T14:12:42.203Z,100814.31
2023-03-11T14:15:57.002Z,100814.50
2023-03-11T14:18:32.562Z,100778.25
2023-03-11T14:21:01.526Z,100804.09
2023-03-11T14:23:43.625Z,100846.97
2023-03-11T14:26:37.185Z,100837.50
2023-03-11T14:29:19.444Z,100805.81
2023-03-11T14:31:47.763Z,100802.50
2023-03-11T14:34:33.705Z,100840.31
2023-03-11T14:37:04.062Z,100826.66
2023-03-11T14:39:54.037Z,100765.72
2023-03-11T14:42:29.189Z,100768.72
2023-03-11T14:45:20.043Z,100819.91
2023-03-11T14:48:18.217Z,100839.75
2023-03-11T14:50:51.971Z,100824.44
2023-03-11T14:53:46.412Z,100868.03
2023-03-11T14:56:28.938Z,100807.84
2023-03-11T14:59:20.400Z,100844.75
2023-03-11T15:01:49.966Z,100821.75
2023-03-11T15:04:56.540Z,100790.78
2023-03-11T15:10:12.061Z,100779.75
2023-03-11T15:12:45.505Z,100812.59
2023-03-11T15:15:44.086Z,100839.38
2023-03-11T15:18:37.606Z,100765.59
2023-03-11T15:21:19.620Z,100801.72
2023-03-11T15:23:49.073Z,100829.28
2023-03-11T15:26:34.464Z,100765.16
2023-03-11T15:29:11.888Z,100767.84
2023-03-11T15:31:48.903Z,100782.59
2023-03-11T15:34:18.767Z,100817.81
2023-03-11T15:36:56.480Z,100803.13
2023-03-11T15:39:37.282Z,100793.66
2023-03-11T15:42:15.772Z,100749.97
2023-03-11T15:44:53.666Z,100784.25
2023-03-11T15:47:22.509Z,100703.63
2023-03-11T15:49:52.101Z,100682.97
2023-03-11T15:52:22.585Z,100706.97
2023-03-11T15:54:56.114Z,100691.44
2023-03-11T15:57:27.324Z,100748.94
2023-03-11T15:59:56.649Z,100755.00
2023-03-11T16:02:28.847Z,100723.38
2023-03-11T16:04:59.119Z,100765.69
2023-03-11T16:07:38.727Z,100714.16
2023-03-11T16:10:07.675Z,100719.41
2023-03-11T16:12:40.069Z,100726.28
2023-03-11T16:15:30.170Z,100728.94
2023-03-11T16:17:59.469Z,100741.84
2023-03-11T16:20:29.226Z,100736.94
2023-03-11T16:22:59.371Z,100761.84
2023-03-11T16:26:06.902Z,100764.53
2023-03-11T16:28:34.584Z,100769.91
2023-03-11T16:31:01.286Z,100732.22
2023-03-11T16:33:28.138Z,100751.25
2023-03-11T16:35:54.740Z,100733.22
2023-03-11T16:38:23.243Z,100714.31
2023-03-11T16:40:59.881Z,100746.97
2023-03-11T16:43:29.086Z,100745.31
2023-03-11T16:46:03.409Z,100706.78
2023-03-11T16:48:30.107Z,100756.69
2023-03-11T16:50:59.799Z,100786.97
2023-03-11T16:53:27.390Z,100763.84
2023-03-11T16:55:57.207Z,100806.09
2023-03-11T16:58:23.858Z,100764.94
2023-03-11T17:00:50.635Z,100792.63
2023-03-11T17:03:22.097Z,100791.81
2023-03-11T17:05:51.613Z,100762.59
2023-03-11T17:08:29.189Z,100740.25
2023-03-11T17:10:55.826Z,100785.03
2023-03-11T17:13:25.023Z,100769.59
2023-03-11T17:15:58.758Z,100809.22
2023-03-11T17:18:48.456Z,100742.94
2023-03-11T17:21:25.371Z,100722.34
2023-03-11T17:23:55.715Z,100792.06
2023-03-11T17:26:23.117Z,100795.47
2023-03-11T17:28:49.594Z,100792.06
2023-03-11T17:31:18.228Z,100834.25
2023-03-11T17:33:50.460Z,100832.53
2023-03-11T17:36:18.695Z,100745.59
2023-03-11T17:38:50.062Z,100795.50
2023-03-11T17:41:18.186Z,100818.78
2023-03-11T17:43:45.571Z,100803.28
2023-03-11T17:46:15.727Z,100747.34
2023-03-11T17:48:44.057Z,100766.28
2023-03-11T17:51:19.325Z,100830.00
2023-03-11T17:53:49.685Z,100768.03
2023-03-11T17:56:21.681Z,100787.81
2023-03-11T17:58:49.466Z,100780.94
2023-03-11T18:01:19.109Z,100755.97
2023-03-11T18:03:50.024Z,100769.72
2023-03-11T18:06:26.028Z,100727.56
2023-03-11T18:08:53.556Z,100729.28
2023-03-11T18:11:25.426Z,100774.03
2023-03-11T18:13:52.470Z,100729.28
2023-03-11T18:16:33.055Z,100773.19
2023-03-11T18:19:00.001Z,100710.34
2023-03-11T18:21:30.559Z,100749.06
2023-03-11T18:24:05.676Z,100725.84
2023-03-11T18:26:41.724Z,100706.03
2023-03-11T18:29:12.984Z,100747.34
2023-03-11T18:31:39.959Z,100712.06
2023-03-11T18:34:13.374Z,100756.81
2023-03-11T18:36:41.820Z,100782.66
2023-03-11T18:39:12.718Z,100785.22
2023-03-11T18:41:39.561Z,100788.66
2023-03-11T18:44:12.558Z,100757.69
2023-03-11T18:46:39.397Z,100758.56
2023-03-11T18:49:06.188Z,100786.97
2023-03-11T18:51:32.863Z,100794.69
2023-03-11T18:54:02.709Z,100802.44
2023-03-11T18:56:33.025Z,100805.03
2023-03-11T18:59:01.640Z,100773.19
2023-03-11T19:01:28.567Z,100759.41
2023-03-11T19:03:58.169Z,100805.88
2023-03-11T19:06:27.305Z,100747.38
2023-03-11T19:08:57.200Z,100791.25
2023-03-11T19:11:25.496Z,100762.00
2023-03-11T19:13:52.640Z,100766.31
2023-03-11T19:16:22.383Z,100785.22
2023-03-11T19:18:50.248Z,100754.22
2023-03-11T19:21:17.880Z,100763.72
2023-03-11T19:23:45.586Z,100788.66
2023-03-11T19:26:14.239Z,100738.72
2023-03-11T19:28:41.284Z,100728.41
2023-03-11T19:31:08.374Z,100743.91
2023-03-11T19:33:35.468Z,100737.91
2023-03-11T19:36:04.444Z,100746.50
2023-03-11T19:38:47.802Z,100725.00
2023-03-11T19:41:19.938Z,100712.94
2023-03-11T19:43:54.606Z,100745.63
2023-03-11T19:46:26.630Z,100735.31
2023-03-11T19:48:56.672Z,100731.00
2023-03-11T19:51:23.509Z,100752.53
2023-03-11T19:53:54.693Z,100738.75
2023-03-11T19:56:21.340Z,100720.66
2023-03-11T19:58:50.639Z,100718.09
2023-03-11T20:01:21.765Z,100687.13
2023-03-11T20:03:52.296Z,100690.56
2023-03-11T20:06:21.255Z,100681.09
2023-03-11T20:08:47.993Z,100723.25
2023-03-11T20:11:20.146Z,100722.41
2023-03-11T20:13:48.672Z,100704.34
2023-03-11T20:16:18.892Z,100717.25
2023-03-11T20:18:53.222Z,100708.63
2023-03-11T20:21:23.126Z,100694.00
2023-03-11T20:24:02.042Z,100692.28
2023-03-11T20:26:29.466Z,100681.97
2023-03-11T20:29:14.428Z,100687.97
2023-03-11T20:31:41.242Z,100661.34
2023-03-11T20:34:12.574Z,100690.56
2023-03-11T20:36:41.789Z,100676.78
2023-03-11T20:39:50.817Z,100661.31
2023-03-11T20:42:18.528Z,100704.31
2023-03-11T20:44:45.382Z,100687.13
2023-03-11T20:47:12.207Z,100663.88
2023-03-11T20:49:39.062Z,100682.81
2023-03-11T20:52:06.499Z,100674.19
2023-03-11T20:54:35.342Z,100648.41
2023-03-11T20:57:02.511Z,100669.91
2023-03-11T20:59:41.403Z,100637.19
2023-03-11T21:02:14.084Z,100663.03
2023-03-11T21:04:43.209Z,100636.38
2023-03-11T21:07:36.183Z,100659.56
2023-03-11T21:10:12.793Z,100633.78
2023-03-11T21:12:39.917Z,100641.50
2023-03-11T21:15:27.197Z,100597.66
2023-03-11T21:17:53.919Z,100656.09
2023-03-11T21:20:35.263Z,100629.47
2023-03-11T21:23:23.620Z,100628.59
2023-03-11T21:26:01.237Z,100635.47
2023-03-11T21:28:29.371Z,100643.22
2023-03-11T21:31:08.178Z,100644.03
2023-03-11T21:33:39.941Z,100629.41
2023-03-11T21:36:14.155Z,100625.13
2023-03-11T21:38:53.461Z,100616.50
2023-03-11T21:41:27.875Z,100613.94
2023-03-11T21:43:57.897Z,100586.41
2023-03-11T21:46:31.727Z,100617.34
2023-03-11T21:49:02.247Z,100597.56
2023-03-11T21:51:35.106Z,100582.94
2023-03-11T21:54:12.744Z,100592.34
2023-03-11T21:56:49.623Z,100604.34
2023-03-11T21:59:19.950Z,100651.63
2023-03-11T22:01:46.716Z,100630.16
2023-03-11T22:04:16.568Z,100619.84
2023-03-11T22:06:47.355Z,100647.34
2023-03-11T22:09:16.763Z,100592.34
2023-03-11T22:11:43.538Z,100607.78
2023-03-11T22:14:10.418Z,100579.41
2023-03-11T22:16:44.462Z,100600.91
2023-03-11T22:19:34.179Z,100649.00
2023-03-11T22:22:03.260Z,100586.28
2023-03-11T22:25:18.030Z,100611.16
2023-03-11T22:27:46.842Z,100602.53
2023-03-11T22:30:24.204Z,100594.78
2023-03-11T22:32:54.313Z,100567.25
2023-03-11T22:35:27.456Z,100576.63
2023-03-11T22:37:55.750Z,100596.38
2023-03-11T22:40:23.747Z,100555.13
2023-03-11T22:42:53.098Z,100588.59
2023-03-11T22:45:22.269Z,100555.94
2023-03-11T22:48:03.305Z,100567.00
2023-03-11T22:50:30.970Z,100588.44
2023-03-11T22:53:00.666Z,100565.25
2023-03-11T22:55:28.781Z,100584.94
2023-03-11T22:57:55.456Z,100567.75
2023-03-11T23:00:23.539Z,100620.09
2023-03-11T23:02:55.883Z,100594.28
2023-03-11T23:05:23.752Z,100616.63
2023-03-11T23:07:50.472Z,100591.69
2023-03-11T23:10:20.930Z,100595.16
2023-03-11T23:12:48.429Z,100612.22
2023-03-11T23:15:17.984Z,100612.19
2023-03-11T23:17:45.165Z,100613.97
2023-03-11T23:20:14.831Z,100583.91
2023-03-11T23:22:42.562Z,100608.78
2023-03-11T23:25:13.450Z,100581.22
2023-03-11T23:27:42.586Z,100617.25
2023-03-11T23:30:14.400Z,100617.22
2023-03-11T23:32:40.941Z,100566.56
2023-03-11T23:35:08.279Z,100603.44
2023-03-11T23:37:34.893Z,100603.41
2023-03-11T23:40:01.521Z,100580.22
2023-03-11T23:42:28.521Z,100575.84
2023-03-11T23:44:55.181Z,100594.69
2023-03-11T23:47:22.531Z,100567.13
2023-03-11T23:49:49.277Z,100591.09
2023-03-11T23:52:15.890Z,100588.53
2023-03-11T23:54:42.487Z,100574.78
2023-03-11T23:57:09.535Z,100575.59
2023-03-11T23:59:36.130Z,100573.78
